Cook, Missouri
Current Conditions -  °F | °C
As of 10:53 AM on Friday 31 Oct 2014 (Local Time) from KVIH Reporting Station
Clear Clear  
Wind Chill: 31°   Ceiling: Unl
Heat Index: 40°   Visibility: 10mi
Dew Point: 26°   Wind: 18mph
Humidity: 58%   Direction: 330°NNW
Pressure: 30.31"   Gusts: 29mph
Location:  37.8491°N, 91.4653°W
Report Text: KVIH 311553Z AUTO 33016G25KT 10SM CLR 04/M03 A3031 RMK AO2 PK WND 34026/1529 SLP269 T00441033
Loading
Personal Weather Stations






























Interactive Weather Map
Tropical Storm Tracking
New forecast layout! Learn more

10-Day Weather Forecast

Advertisements
Track Severe Weather on mobile